메인 페이지
METAR-TAF:

METAR-TAF

공항 :

Little Rock National Airport (Adams Field)

리틀록, 아칸소, 미국

위도: 34-43-36N, 경도: 092-14-10W, 고도: 79m

현재 날씨관측

예보는 47분 전, 12:53시(UTC)에 발표되었습니다.
9kt
온도 22°C
습도 100%
기압 1018 hPa
시정: 16.1km
고도 1200ft 상공 구름 조금
고도 2200ft 상공 흐림

METAR: KLIT 261253Z 01009KT 10SM FEW012 OVC022 22/22 A3005 RMK AO2 SLP176 FROPA T02220217

시각: 08:40 (13:40 UTC)

예보

예보는 2 시간 0분 전, 11:40시(UTC)에 발표되었습니다.
예보 대상 시간: 26일 12시부터 27일 12시까지 (UTC)
북서5kt
시정: 10km
고도 8000ft 상공 흐림
시계 내 소나기
26일 1400시부터 (UTC)
12kt, 순간 최대 풍속 20kt
시정: 10km
고도 1500ft 상공 흐림
시계 내 소나기
26일 2100시부터 (UTC)
북북동10kt, 순간 최대 풍속 18kt
시정: 10km
고도 3000ft 상공 흐림
27일 0000시부터 (UTC)
북북동8kt
시정: 10km
고도 4000ft 상공 흐림
27일 1000시부터 (UTC)
북북동5kt
시정: 10km
고도 10000ft 상공 흐림

TAF: KLIT 261140Z 2612/2712 32005KT P6SM VCSH OVC080 FM261400 01012G20KT P6SM VCSH OVC015 FM262100 02010G18KT P6SM OVC030 FM270000 03008KT P6SM OVC040 FM271000 02005KT P6SM OVC100

4,000개 이상의 공항 관측 자료 및 예보 (METAR 및 TAF 보고).

지도상에서 검색 가능한 기상관측소가 노란 점과 빨간 점으로 표시되어 있습니다.

기상관측소 명을 보려면 표시 위로 마우스를 이동하세요.

날씨 관측과 예보를 보려면 클릭하세요.

지도 변경 : 확대하려면 엑스 표시가 있는 녹색 버튼, 축소하려면 빼기 표시가 있는 녹색 버튼, 다음 페이지의 지도를 보려면 녹색 화살표를 클릭하세요.


METAR-TAF: